sensor_id;sensor_type;location;lat;lon;timestamp;pressure;altitude;pressure_sealevel;temperature;humidity
43701;BME280;58809;47.984;7.964;2023-06-01T00:00:40;97298.44;;;13.67;66.66
43701;BME280;58809;47.984;7.964;2023-06-01T00:03:42;97302.75;;;13.69;66.37
43701;BME280;58809;47.984;7.964;2023-06-01T00:06:46;97297.59;;;13.60;66.84
43701;BME280;58809;47.984;7.964;2023-06-01T00:09:47;97289.63;;;13.54;66.85
43701;BME280;58809;47.984;7.964;2023-06-01T00:12:49;97295.13;;;13.52;67.31
43701;BME280;58809;47.984;7.964;2023-06-01T00:15:50;97295.88;;;13.46;67.39
43701;BME280;58809;47.984;7.964;2023-06-01T00:18:52;97291.81;;;13.43;67.77
43701;BME280;58809;47.984;7.964;2023-06-01T00:21:55;97286.59;;;13.28;67.77
43701;BME280;58809;47.984;7.964;2023-06-01T00:24:58;97288.75;;;13.18;68.94
43701;BME280;58809;47.984;7.964;2023-06-01T00:28:00;97287.34;;;13.22;67.83
43701;BME280;58809;47.984;7.964;2023-06-01T00:31:03;97284.56;;;13.31;67.90
43701;BME280;58809;47.984;7.964;2023-06-01T00:34:05;97279.06;;;13.32;68.14
43701;BME280;58809;47.984;7.964;2023-06-01T00:37:08;97277.22;;;13.33;68.14
43701;BME280;58809;47.984;7.964;2023-06-01T00:40:10;97274.50;;;13.26;68.71
43701;BME280;58809;47.984;7.964;2023-06-01T00:43:12;97272.00;;;13.18;69.21
43701;BME280;58809;47.984;7.964;2023-06-01T00:46:13;97277.69;;;13.15;69.46
43701;BME280;58809;47.984;7.964;2023-06-01T00:49:15;97278.13;;;13.12;69.60
43701;BME280;58809;47.984;7.964;2023-06-01T00:52:17;97272.38;;;13.08;69.85
43701;BME280;58809;47.984;7.964;2023-06-01T00:55:20;97275.22;;;13.06;69.86
43701;BME280;58809;47.984;7.964;2023-06-01T00:58:22;97268.66;;;13.02;70.20
43701;BME280;58809;47.984;7.964;2023-06-01T01:01:23;97274.91;;;12.95;70.18
43701;BME280;58809;47.984;7.964;2023-06-01T01:04:25;97275.53;;;12.90;70.22
43701;BME280;58809;47.984;7.964;2023-06-01T01:10:53;97265.66;;;12.84;69.93
43701;BME280;58809;47.984;7.964;2023-06-01T01:14:05;97268.97;;;12.86;70.96
43701;BME280;58809;47.984;7.964;2023-06-01T01:17:15;97275.47;;;12.83;70.61
43701;BME280;58809;47.984;7.964;2023-06-01T01:20:24;97278.56;;;12.87;70.63
43701;BME280;58809;47.984;7.964;2023-06-01T01:27:23;97272.34;;;12.73;71.19
43701;BME280;58809;47.984;7.964;2023-06-01T01:30:29;97275.38;;;12.70;71.74
43701;BME280;58809;47.984;7.964;2023-06-01T01:33:32;97268.81;;;12.66;72.04
43701;BME280;58809;47.984;7.964;2023-06-01T01:36:34;97262.63;;;12.59;72.23
43701;BME280;58809;47.984;7.964;2023-06-01T01:39:38;97275.06;;;12.58;72.54
43701;BME280;58809;47.984;7.964;2023-06-01T01:42:39;97275.31;;;12.63;72.40
43701;BME280;58809;47.984;7.964;2023-06-01T01:45:41;97271.59;;;12.58;73.01
43701;BME280;58809;47.984;7.964;2023-06-01T01:49:16;97275.47;;;12.55;72.84
43701;BME280;58809;47.984;7.964;2023-06-01T01:52:32;97276.66;;;12.52;72.77
43701;BME280;58809;47.984;7.964;2023-06-01T01:55:33;97276.28;;;12.56;73.21
43701;BME280;58809;47.984;7.964;2023-06-01T01:58:36;97274.22;;;12.51;72.54
43701;BME280;58809;47.984;7.964;2023-06-01T02:01:39;97269.47;;;12.46;72.67
43701;BME280;58809;47.984;7.964;2023-06-01T02:04:46;97263.28;;;12.39;73.07
43701;BME280;58809;47.984;7.964;2023-06-01T02:07:47;97258.59;;;12.41;74.03
43701;BME280;58809;47.984;7.964;2023-06-01T02:10:49;97266.88;;;12.31;74.51
43701;BME280;58809;47.984;7.964;2023-06-01T02:13:51;97268.22;;;12.21;74.83
43701;BME280;58809;47.984;7.964;2023-06-01T02:16:53;97264.34;;;12.23;74.72
43701;BME280;58809;47.984;7.964;2023-06-01T02:19:55;97260.81;;;12.16;75.59
43701;BME280;58809;47.984;7.964;2023-06-01T02:22:56;97259.00;;;12.17;75.73
43701;BME280;58809;47.984;7.964;2023-06-01T02:25:58;97259.00;;;12.17;75.89
43701;BME280;58809;47.984;7.964;2023-06-01T02:29:00;97263.09;;;12.19;75.88
43701;BME280;58809;47.984;7.964;2023-06-01T02:32:04;97254.56;;;12.24;76.09
43701;BME280;58809;47.984;7.964;2023-06-01T02:35:06;97256.66;;;12.28;74.97
43701;BME280;58809;47.984;7.964;2023-06-01T02:38:09;97258.84;;;12.25;75.42
43701;BME280;58809;47.984;7.964;2023-06-01T02:41:11;97263.84;;;12.13;76.05
43701;BME280;58809;47.984;7.964;2023-06-01T02:44:14;97261.94;;;12.07;76.21
43701;BME280;58809;47.984;7.964;2023-06-01T02:47:16;97257.97;;;11.96;76.37
43701;BME280;58809;47.984;7.964;2023-06-01T02:50:18;97243.88;;;11.96;76.72
43701;BME280;58809;47.984;7.964;2023-06-01T02:53:24;97244.47;;;11.91;76.62
43701;BME280;58809;47.984;7.964;2023-06-01T02:56:28;97243.34;;;11.85;76.71
43701;BME280;58809;47.984;7.964;2023-06-01T02:59:55;97254.97;;;11.84;77.04
43701;BME280;58809;47.984;7.964;2023-06-01T03:02:57;97247.59;;;11.80;76.92
43701;BME280;58809;47.984;7.964;2023-06-01T03:05:59;97252.22;;;11.78;77.78
43701;BME280;58809;47.984;7.964;2023-06-01T03:09:26;97251.78;;;11.74;77.75
43701;BME280;58809;47.984;7.964;2023-06-01T03:12:48;97265.75;;;11.83;77.62
43701;BME280;58809;47.984;7.964;2023-06-01T03:15:50;97259.44;;;11.84;77.86
43701;BME280;58809;47.984;7.964;2023-06-01T03:18:52;97254.97;;;11.84;77.78
43701;BME280;58809;47.984;7.964;2023-06-01T03:21:54;97259.91;;;11.87;78.25
43701;BME280;58809;47.984;7.964;2023-06-01T03:24:56;97256.41;;;11.87;77.94
43701;BME280;58809;47.984;7.964;2023-06-01T03:28:03;97259.53;;;11.90;77.88
43701;BME280;58809;47.984;7.964;2023-06-01T03:31:05;97260.72;;;11.88;77.61
43701;BME280;58809;47.984;7.964;2023-06-01T03:34:07;97256.53;;;11.79;77.92
43701;BME280;58809;47.984;7.964;2023-06-01T03:37:09;97259.56;;;11.75;78.81
43701;BME280;58809;47.984;7.964;2023-06-01T03:40:11;97265.44;;;11.71;78.57
43701;BME280;58809;47.984;7.964;2023-06-01T03:43:14;97264.84;;;11.75;78.51
43701;BME280;58809;47.984;7.964;2023-06-01T03:46:16;97271.81;;;11.77;78.36
43701;BME280;58809;47.984;7.964;2023-06-01T03:49:19;97266.31;;;11.78;78.79
43701;BME280;58809;47.984;7.964;2023-06-01T03:52:21;97274.28;;;11.78;78.85
43701;BME280;58809;47.984;7.964;2023-06-01T03:55:22;97275.22;;;11.70;79.52
43701;BME280;58809;47.984;7.964;2023-06-01T03:58:48;97280.75;;;11.75;79.20
43701;BME280;58809;47.984;7.964;2023-06-01T04:01:51;97274.63;;;11.90;78.60
43701;BME280;58809;47.984;7.964;2023-06-01T04:04:53;97276.91;;;11.93;78.06
43701;BME280;58809;47.984;7.964;2023-06-01T04:07:55;97273.25;;;11.94;78.46
43701;BME280;58809;47.984;7.964;2023-06-01T04:10:56;97275.34;;;11.99;78.43
43701;BME280;58809;47.984;7.964;2023-06-01T04:13:58;97282.03;;;11.94;78.63
43701;BME280;58809;47.984;7.964;2023-06-01T04:17:01;97278.19;;;11.97;79.46
43701;BME280;58809;47.984;7.964;2023-06-01T04:20:06;97277.63;;;12.02;78.61
43701;BME280;58809;47.984;7.964;2023-06-01T04:23:08;97285.63;;;12.08;79.64
43701;BME280;58809;47.984;7.964;2023-06-01T04:26:10;97287.56;;;12.15;78.55
43701;BME280;58809;47.984;7.964;2023-06-01T04:29:12;97281.91;;;12.24;77.67
43701;BME280;58809;47.984;7.964;2023-06-01T04:32:14;97288.38;;;12.37;77.40
43701;BME280;58809;47.984;7.964;2023-06-01T04:35:22;97288.22;;;12.45;77.71
43701;BME280;58809;47.984;7.964;2023-06-01T04:38:24;97292.34;;;12.47;78.17
43701;BME280;58809;47.984;7.964;2023-06-01T04:41:26;97291.94;;;12.50;77.89
43701;BME280;58809;47.984;7.964;2023-06-01T04:44:28;97290.44;;;12.63;77.63
43701;BME280;58809;47.984;7.964;2023-06-01T04:47:31;97291.81;;;12.80;77.12
43701;BME280;58809;47.984;7.964;2023-06-01T04:50:33;97296.38;;;12.93;77.14
43701;BME280;58809;47.984;7.964;2023-06-01T04:53:36;97300.31;;;13.04;76.63
43701;BME280;58809;47.984;7.964;2023-06-01T04:56:37;97296.91;;;13.17;76.82
43701;BME280;58809;47.984;7.964;2023-06-01T04:59:42;97296.41;;;13.28;76.71
43701;BME280;58809;47.984;7.964;2023-06-01T05:02:44;97293.47;;;13.44;75.70
43701;BME280;58809;47.984;7.964;2023-06-01T05:05:48;97303.34;;;13.57;75.36
43701;BME280;58809;47.984;7.964;2023-06-01T05:08:49;97295.22;;;13.72;74.99
43701;BME280;58809;47.984;7.964;2023-06-01T05:11:52;97303.63;;;13.82;74.51
43701;BME280;58809;47.984;7.964;2023-06-01T05:14:54;97313.28;;;13.97;74.22
43701;BME280;58809;47.984;7.964;2023-06-01T05:17:55;97305.94;;;14.05;74.31
43701;BME280;58809;47.984;7.964;2023-06-01T05:20:58;97305.78;;;14.20;73.88
43701;BME280;58809;47.984;7.964;2023-06-01T05:24:00;97307.84;;;14.32;73.35
43701;BME280;58809;47.984;7.964;2023-06-01T05:27:02;97306.03;;;14.46;73.02
43701;BME280;58809;47.984;7.964;2023-06-01T05:30:04;97311.41;;;14.59;72.88
43701;BME280;58809;47.984;7.964;2023-06-01T05:33:07;97313.44;;;14.70;72.56
43701;BME280;58809;47.984;7.964;2023-06-01T05:36:08;97306.50;;;14.82;72.40
43701;BME280;58809;47.984;7.964;2023-06-01T05:39:12;97307.91;;;14.85;72.77
43701;BME280;58809;47.984;7.964;2023-06-01T05:42:13;97304.00;;;14.94;72.73
43701;BME280;58809;47.984;7.964;2023-06-01T05:45:15;97305.22;;;15.05;72.49
43701;BME280;58809;47.984;7.964;2023-06-01T05:48:17;97310.56;;;15.18;71.95
43701;BME280;58809;47.984;7.964;2023-06-01T05:51:24;97301.94;;;15.30;71.58
43701;BME280;58809;47.984;7.964;2023-06-01T05:54:26;97305.16;;;15.38;71.51
43701;BME280;58809;47.984;7.964;2023-06-01T05:57:27;97302.28;;;15.47;70.70
43701;BME280;58809;47.984;7.964;2023-06-01T06:00:29;97307.78;;;15.58;69.43
43701;BME280;58809;47.984;7.964;2023-06-01T06:03:31;97306.91;;;15.71;67.96
43701;BME280;58809;47.984;7.964;2023-06-01T06:06:33;97307.97;;;15.77;66.66
43701;BME280;58809;47.984;7.964;2023-06-01T06:09:35;97306.47;;;15.88;66.48
43701;BME280;58809;47.984;7.964;2023-06-01T06:12:36;97311.97;;;16.00;66.09
43701;BME280;58809;47.984;7.964;2023-06-01T06:15:38;97298.97;;;16.10;65.68
43701;BME280;58809;47.984;7.964;2023-06-01T06:18:40;97308.13;;;16.27;65.68
43701;BME280;58809;47.984;7.964;2023-06-01T06:21:42;97303.13;;;16.38;65.71
43701;BME280;58809;47.984;7.964;2023-06-01T06:24:43;97301.56;;;16.55;65.41
43701;BME280;58809;47.984;7.964;2023-06-01T06:27:45;97308.66;;;16.68;64.77
43701;BME280;58809;47.984;7.964;2023-06-01T06:30:47;97307.44;;;16.70;64.36
43701;BME280;58809;47.984;7.964;2023-06-01T06:33:49;60547.97;;;-144.80;100.00
43701;BME280;58809;47.984;7.964;2023-06-01T06:36:52;60547.97;;;-144.80;100.00
43701;BME280;58809;47.984;7.964;2023-06-01T06:39:54;60547.97;;;-144.80;100.00
43701;BME280;58809;47.984;7.964;2023-06-01T06:42:55;60547.97;;;-144.80;100.00
43701;BME280;58809;47.984;7.964;2023-06-01T06:45:57;60547.97;;;-144.80;100.00
43701;BME280;58809;47.984;7.964;2023-06-01T06:48:58;60547.97;;;-144.80;100.00
43701;BME280;58809;47.984;7.964;2023-06-01T06:52:00;60547.97;;;-144.80;100.00
43701;BME280;58809;47.984;7.964;2023-06-01T06:55:02;60547.97;;;-144.80;100.00
43701;BME280;58809;47.984;7.964;2023-06-01T06:58:03;60547.97;;;-144.80;100.00
43701;BME280;58809;47.984;7.964;2023-06-01T07:01:05;60547.97;;;-144.80;100.00
43701;BME280;58809;47.984;7.964;2023-06-01T07:04:07;60547.97;;;-144.80;100.00
43701;BME280;58809;47.984;7.964;2023-06-01T07:07:09;60547.97;;;-144.80;100.00
43701;BME280;58809;47.984;7.964;2023-06-01T07:10:10;60547.97;;;-144.80;100.00
43701;BME280;58809;47.984;7.964;2023-06-01T07:13:12;60547.97;;;-144.80;100.00
43701;BME280;58809;47.984;7.964;2023-06-01T07:16:14;60547.97;;;-144.80;100.00
43701;BME280;58809;47.984;7.964;2023-06-01T07:19:16;60547.97;;;-144.80;100.00
43701;BME280;58809;47.984;7.964;2023-06-01T07:22:18;60547.97;;;-144.80;100.00
43701;BME280;58809;47.984;7.964;2023-06-01T07:25:22;60547.97;;;-144.80;100.00
43701;BME280;58809;47.984;7.964;2023-06-01T07:28:23;60547.97;;;-144.80;100.00
43701;BME280;58809;47.984;7.964;2023-06-01T07:31:28;60547.97;;;-144.80;100.00
43701;BME280;58809;47.984;7.964;2023-06-01T07:34:30;60547.97;;;-144.80;100.00
43701;BME280;58809;47.984;7.964;2023-06-01T07:37:31;60547.97;;;-144.80;100.00
43701;BME280;58809;47.984;7.964;2023-06-01T07:40:33;60547.97;;;-144.80;100.00
43701;BME280;58809;47.984;7.964;2023-06-01T07:43:37;60547.97;;;-144.80;100.00
43701;BME280;58809;47.984;7.964;2023-06-01T07:46:42;60547.97;;;-144.80;100.00
43701;BME280;58809;47.984;7.964;2023-06-01T07:49:43;60547.97;;;-144.80;100.00
43701;BME280;58809;47.984;7.964;2023-06-01T07:52:45;60547.97;;;-144.80;100.00
43701;BME280;58809;47.984;7.964;2023-06-01T07:55:46;60547.97;;;-144.80;100.00
43701;BME280;58809;47.984;7.964;2023-06-01T07:58:51;60547.97;;;-144.80;100.00
43701;BME280;58809;47.984;7.964;2023-06-01T08:01:53;60547.97;;;-144.80;100.00
43701;BME280;58809;47.984;7.964;2023-06-01T08:04:55;60547.97;;;-144.80;100.00
43701;BME280;58809;47.984;7.964;2023-06-01T08:07:58;60547.97;;;-144.80;100.00
43701;BME280;58809;47.984;7.964;2023-06-01T08:10:59;60547.97;;;-144.80;100.00
43701;BME280;58809;47.984;7.964;2023-06-01T08:14:01;60547.97;;;-144.80;100.00
43701;BME280;58809;47.984;7.964;2023-06-01T08:17:06;60547.97;;;-144.80;100.00
43701;BME280;58809;47.984;7.964;2023-06-01T08:20:09;60547.97;;;-144.80;100.00
43701;BME280;58809;47.984;7.964;2023-06-01T08:23:12;60547.97;;;-144.80;100.00
43701;BME280;58809;47.984;7.964;2023-06-01T08:26:14;60547.97;;;-144.80;100.00
43701;BME280;58809;47.984;7.964;2023-06-01T08:29:16;60547.97;;;-144.80;100.00
43701;BME280;58809;47.984;7.964;2023-06-01T08:32:31;60547.97;;;-144.80;100.00
43701;BME280;58809;47.984;7.964;2023-06-01T08:35:32;60547.97;;;-144.80;100.00
43701;BME280;58809;47.984;7.964;2023-06-01T08:38:34;60547.97;;;-144.80;100.00
43701;BME280;58809;47.984;7.964;2023-06-01T08:41:49;60547.97;;;-144.80;100.00
43701;BME280;58809;47.984;7.964;2023-06-01T08:44:57;60547.97;;;-144.80;100.00
43701;BME280;58809;47.984;7.964;2023-06-01T08:48:01;60547.97;;;-144.80;100.00
43701;BME280;58809;47.984;7.964;2023-06-01T08:51:04;60547.97;;;-144.80;100.00
43701;BME280;58809;47.984;7.964;2023-06-01T08:54:08;60547.97;;;-144.80;100.00
43701;BME280;58809;47.984;7.964;2023-06-01T08:57:10;60547.97;;;-144.80;100.00
43701;BME280;58809;47.984;7.964;2023-06-01T09:00:13;60547.97;;;-144.80;100.00
43701;BME280;58809;47.984;7.964;2023-06-01T09:03:17;60547.97;;;-144.80;100.00
43701;BME280;58809;47.984;7.964;2023-06-01T09:06:19;60547.97;;;-144.80;100.00
43701;BME280;58809;47.984;7.964;2023-06-01T09:09:21;60547.97;;;-144.80;100.00
43701;BME280;58809;47.984;7.964;2023-06-01T09:12:29;60547.97;;;-144.80;100.00
43701;BME280;58809;47.984;7.964;2023-06-01T09:15:31;60547.97;;;-144.80;100.00
43701;BME280;58809;47.984;7.964;2023-06-01T09:18:33;60547.97;;;-144.80;100.00
43701;BME280;58809;47.984;7.964;2023-06-01T09:21:35;60547.97;;;-144.80;100.00
43701;BME280;58809;47.984;7.964;2023-06-01T09:24:37;60547.97;;;-144.80;100.00
43701;BME280;58809;47.984;7.964;2023-06-01T09:27:52;60547.97;;;-144.80;100.00
43701;BME280;58809;47.984;7.964;2023-06-01T09:30:54;60547.97;;;-144.80;100.00
43701;BME280;58809;47.984;7.964;2023-06-01T09:34:04;60547.97;;;-144.80;100.00
43701;BME280;58809;47.984;7.964;2023-06-01T09:37:06;60547.97;;;-144.80;100.00
43701;BME280;58809;47.984;7.964;2023-06-01T09:40:17;60547.97;;;-144.80;100.00
43701;BME280;58809;47.984;7.964;2023-06-01T09:43:20;60547.97;;;-144.80;100.00
43701;BME280;58809;47.984;7.964;2023-06-01T09:46:22;60547.97;;;-144.80;100.00
43701;BME280;58809;47.984;7.964;2023-06-01T09:49:26;60547.97;;;-144.80;100.00
43701;BME280;58809;47.984;7.964;2023-06-01T09:52:28;60547.97;;;-144.80;100.00
43701;BME280;58809;47.984;7.964;2023-06-01T09:55:29;60547.97;;;-144.80;100.00
43701;BME280;58809;47.984;7.964;2023-06-01T09:58:31;60547.97;;;-144.80;100.00
43701;BME280;58809;47.984;7.964;2023-06-01T10:01:35;60547.97;;;-144.80;100.00
43701;BME280;58809;47.984;7.964;2023-06-01T10:04:39;60547.97;;;-144.80;100.00
43701;BME280;58809;47.984;7.964;2023-06-01T10:07:41;60547.97;;;-144.80;100.00
43701;BME280;58809;47.984;7.964;2023-06-01T10:10:48;60547.97;;;-144.80;100.00
43701;BME280;58809;47.984;7.964;2023-06-01T10:13:50;60547.97;;;-144.80;100.00
43701;BME280;58809;47.984;7.964;2023-06-01T10:16:53;60547.97;;;-144.80;100.00
43701;BME280;58809;47.984;7.964;2023-06-01T10:19:55;60547.97;;;-144.80;100.00
43701;BME280;58809;47.984;7.964;2023-06-01T10:22:59;60547.97;;;-144.80;100.00
43701;BME280;58809;47.984;7.964;2023-06-01T10:26:04;60547.97;;;-144.80;100.00
43701;BME280;58809;47.984;7.964;2023-06-01T10:29:11;60547.97;;;-144.80;100.00
43701;BME280;58809;47.984;7.964;2023-06-01T10:32:41;60547.97;;;-144.80;100.00
43701;BME280;58809;47.984;7.964;2023-06-01T10:38:48;60547.97;;;-144.80;100.00
43701;BME280;58809;47.984;7.964;2023-06-01T10:41:50;60547.97;;;-144.80;100.00
43701;BME280;58809;47.984;7.964;2023-06-01T10:44:51;60547.97;;;-144.80;100.00
43701;BME280;58809;47.984;7.964;2023-06-01T10:47:53;60547.97;;;-144.80;100.00
43701;BME280;58809;47.984;7.964;2023-06-01T10:51:20;60547.97;;;-144.80;100.00
43701;BME280;58809;47.984;7.964;2023-06-01T10:54:30;60547.97;;;-144.80;100.00
43701;BME280;58809;47.984;7.964;2023-06-01T10:57:38;60547.97;;;-144.80;100.00
43701;BME280;58809;47.984;7.964;2023-06-01T11:00:40;60547.97;;;-144.80;100.00
43701;BME280;58809;47.984;7.964;2023-06-01T11:03:43;60547.97;;;-144.80;100.00
43701;BME280;58809;47.984;7.964;2023-06-01T11:06:46;60547.97;;;-144.80;100.00
43701;BME280;58809;47.984;7.964;2023-06-01T11:09:48;60547.97;;;-144.80;100.00
43701;BME280;58809;47.984;7.964;2023-06-01T11:13:12;60547.97;;;-144.80;100.00
43701;BME280;58809;47.984;7.964;2023-06-01T11:19:21;60547.97;;;-144.80;100.00
43701;BME280;58809;47.984;7.964;2023-06-01T11:22:32;60547.97;;;-144.80;100.00
43701;BME280;58809;47.984;7.964;2023-06-01T11:25:34;60547.97;;;-144.80;100.00
43701;BME280;58809;47.984;7.964;2023-06-01T11:28:36;60547.97;;;-144.80;100.00
43701;BME280;58809;47.984;7.964;2023-06-01T11:34:40;60547.97;;;-144.80;100.00
43701;BME280;58809;47.984;7.964;2023-06-01T11:37:43;60547.97;;;-144.80;100.00
43701;BME280;58809;47.984;7.964;2023-06-01T11:41:01;60547.97;;;-144.80;100.00
43701;BME280;58809;47.984;7.964;2023-06-01T11:44:03;60547.97;;;-144.80;100.00
43701;BME280;58809;47.984;7.964;2023-06-01T11:47:06;60547.97;;;-144.80;100.00
43701;BME280;58809;47.984;7.964;2023-06-01T11:50:20;60547.97;;;-144.80;100.00
43701;BME280;58809;47.984;7.964;2023-06-01T11:53:23;60547.97;;;-144.80;100.00
43701;BME280;58809;47.984;7.964;2023-06-01T11:56:33;60547.97;;;-144.80;100.00
43701;BME280;58809;47.984;7.964;2023-06-01T11:59:47;60547.97;;;-144.80;100.00
43701;BME280;58809;47.984;7.964;2023-06-01T12:02:49;60547.97;;;-144.80;100.00
43701;BME280;58809;47.984;7.964;2023-06-01T12:06:05;60547.97;;;-144.80;100.00
43701;BME280;58809;47.984;7.964;2023-06-01T12:09:09;60547.97;;;-144.80;100.00
43701;BME280;58809;47.984;7.964;2023-06-01T12:12:11;60547.97;;;-144.80;100.00
43701;BME280;58809;47.984;7.964;2023-06-01T12:15:17;60547.97;;;-144.80;100.00
43701;BME280;58809;47.984;7.964;2023-06-01T12:18:29;60547.97;;;-144.80;100.00
43701;BME280;58809;47.984;7.964;2023-06-01T12:21:33;60547.97;;;-144.80;100.00
43701;BME280;58809;47.984;7.964;2023-06-01T12:24:34;60547.97;;;-144.80;100.00
43701;BME280;58809;47.984;7.964;2023-06-01T12:27:36;60547.97;;;-144.80;100.00
43701;BME280;58809;47.984;7.964;2023-06-01T12:30:39;60547.97;;;-144.80;100.00
43701;BME280;58809;47.984;7.964;2023-06-01T12:33:42;60547.97;;;-144.80;100.00
43701;BME280;58809;47.984;7.964;2023-06-01T12:36:47;60547.97;;;-144.80;100.00
43701;BME280;58809;47.984;7.964;2023-06-01T12:39:55;60547.97;;;-144.80;100.00
43701;BME280;58809;47.984;7.964;2023-06-01T12:43:03;60547.97;;;-144.80;100.00
43701;BME280;58809;47.984;7.964;2023-06-01T12:46:20;60547.97;;;-144.80;100.00
43701;BME280;58809;47.984;7.964;2023-06-01T12:49:22;60547.97;;;-144.80;100.00
43701;BME280;58809;47.984;7.964;2023-06-01T12:52:24;60547.97;;;-144.80;100.00
43701;BME280;58809;47.984;7.964;2023-06-01T12:55:25;60547.97;;;-144.80;100.00
43701;BME280;58809;47.984;7.964;2023-06-01T12:58:27;60547.97;;;-144.80;100.00
43701;BME280;58809;47.984;7.964;2023-06-01T13:01:32;60547.97;;;-144.80;100.00
43701;BME280;58809;47.984;7.964;2023-06-01T13:04:34;60547.97;;;-144.80;100.00
43701;BME280;58809;47.984;7.964;2023-06-01T13:07:36;60547.97;;;-144.80;100.00
43701;BME280;58809;47.984;7.964;2023-06-01T13:10:37;60547.97;;;-144.80;100.00
43701;BME280;58809;47.984;7.964;2023-06-01T13:13:39;60547.97;;;-144.80;100.00
43701;BME280;58809;47.984;7.964;2023-06-01T13:16:44;60547.97;;;-144.80;100.00
43701;BME280;58809;47.984;7.964;2023-06-01T13:19:45;60547.97;;;-144.80;100.00
43701;BME280;58809;47.984;7.964;2023-06-01T13:22:47;60547.97;;;-144.80;100.00
43701;BME280;58809;47.984;7.964;2023-06-01T13:25:50;60547.97;;;-144.80;100.00
43701;BME280;58809;47.984;7.964;2023-06-01T13:28:51;60547.97;;;-144.80;100.00
43701;BME280;58809;47.984;7.964;2023-06-01T13:31:53;60547.97;;;-144.80;100.00
43701;BME280;58809;47.984;7.964;2023-06-01T13:34:55;60547.97;;;-144.80;100.00
43701;BME280;58809;47.984;7.964;2023-06-01T13:37:58;60547.97;;;-144.80;100.00
43701;BME280;58809;47.984;7.964;2023-06-01T13:41:00;60547.97;;;-144.80;100.00
43701;BME280;58809;47.984;7.964;2023-06-01T13:44:02;60547.97;;;-144.80;100.00
43701;BME280;58809;47.984;7.964;2023-06-01T13:47:04;60547.97;;;-144.80;100.00
43701;BME280;58809;47.984;7.964;2023-06-01T13:50:06;60547.97;;;-144.80;100.00
43701;BME280;58809;47.984;7.964;2023-06-01T13:53:08;60547.97;;;-144.80;100.00
43701;BME280;58809;47.984;7.964;2023-06-01T13:56:11;60547.97;;;-144.80;100.00
43701;BME280;58809;47.984;7.964;2023-06-01T13:59:12;60547.97;;;-144.80;100.00
43701;BME280;58809;47.984;7.964;2023-06-01T14:02:14;60547.97;;;-144.80;100.00
43701;BME280;58809;47.984;7.964;2023-06-01T14:05:16;60547.97;;;-144.80;100.00
43701;BME280;58809;47.984;7.964;2023-06-01T14:08:28;60547.97;;;-144.80;100.00
43701;BME280;58809;47.984;7.964;2023-06-01T14:11:30;60547.97;;;-144.80;100.00
43701;BME280;58809;47.984;7.964;2023-06-01T14:14:32;60547.97;;;-144.80;100.00
43701;BME280;58809;47.984;7.964;2023-06-01T14:17:33;60547.97;;;-144.80;100.00
43701;BME280;58809;47.984;7.964;2023-06-01T14:20:35;60547.97;;;-144.80;100.00
43701;BME280;58809;47.984;7.964;2023-06-01T14:23:39;60547.97;;;-144.80;100.00
43701;BME280;58809;47.984;7.964;2023-06-01T14:26:44;60547.97;;;-144.80;100.00
43701;BME280;58809;47.984;7.964;2023-06-01T14:29:46;60547.97;;;-144.80;100.00
43701;BME280;58809;47.984;7.964;2023-06-01T14:32:48;60547.97;;;-144.80;100.00
43701;BME280;58809;47.984;7.964;2023-06-01T14:35:49;60547.97;;;-144.80;100.00
43701;BME280;58809;47.984;7.964;2023-06-01T14:38:52;60547.97;;;-144.80;100.00
43701;BME280;58809;47.984;7.964;2023-06-01T14:41:53;60547.97;;;-144.80;100.00
43701;BME280;58809;47.984;7.964;2023-06-01T14:44:55;60547.97;;;-144.80;100.00
43701;BME280;58809;47.984;7.964;2023-06-01T14:48:06;60547.97;;;-144.80;100.00
43701;BME280;58809;47.984;7.964;2023-06-01T14:51:08;60547.97;;;-144.80;100.00
43701;BME280;58809;47.984;7.964;2023-06-01T14:54:10;60547.97;;;-144.80;100.00
43701;BME280;58809;47.984;7.964;2023-06-01T14:57:11;60547.97;;;-144.80;100.00
43701;BME280;58809;47.984;7.964;2023-06-01T15:00:14;60547.97;;;-144.80;100.00
43701;BME280;58809;47.984;7.964;2023-06-01T15:03:16;60547.97;;;-144.80;100.00
43701;BME280;58809;47.984;7.964;2023-06-01T15:06:19;60547.97;;;-144.80;100.00
43701;BME280;58809;47.984;7.964;2023-06-01T15:09:20;60547.97;;;-144.80;100.00
43701;BME280;58809;47.984;7.964;2023-06-01T15:12:22;60547.97;;;-144.80;100.00
43701;BME280;58809;47.984;7.964;2023-06-01T15:15:23;60547.97;;;-144.80;100.00
43701;BME280;58809;47.984;7.964;2023-06-01T15:18:25;60547.97;;;-144.80;100.00
43701;BME280;58809;47.984;7.964;2023-06-01T15:21:27;60547.97;;;-144.80;100.00
43701;BME280;58809;47.984;7.964;2023-06-01T15:24:28;60547.97;;;-144.80;100.00
43701;BME280;58809;47.984;7.964;2023-06-01T15:27:30;60547.97;;;-144.80;100.00
43701;BME280;58809;47.984;7.964;2023-06-01T15:30:32;60547.97;;;-144.80;100.00
43701;BME280;58809;47.984;7.964;2023-06-01T15:33:35;60547.97;;;-144.80;100.00
43701;BME280;58809;47.984;7.964;2023-06-01T15:36:36;60547.97;;;-144.80;100.00
43701;BME280;58809;47.984;7.964;2023-06-01T15:39:39;60547.97;;;-144.80;100.00
43701;BME280;58809;47.984;7.964;2023-06-01T15:42:41;60547.97;;;-144.80;100.00
43701;BME280;58809;47.984;7.964;2023-06-01T15:46:08;60547.97;;;-144.80;100.00
43701;BME280;58809;47.984;7.964;2023-06-01T15:49:10;60547.97;;;-144.80;100.00
43701;BME280;58809;47.984;7.964;2023-06-01T15:52:12;60547.97;;;-144.80;100.00
43701;BME280;58809;47.984;7.964;2023-06-01T15:55:13;60547.97;;;-144.80;100.00
43701;BME280;58809;47.984;7.964;2023-06-01T15:58:15;60547.97;;;-144.80;100.00
43701;BME280;58809;47.984;7.964;2023-06-01T16:01:18;60547.97;;;-144.80;100.00
43701;BME280;58809;47.984;7.964;2023-06-01T16:04:30;60547.97;;;-144.80;100.00
43701;BME280;58809;47.984;7.964;2023-06-01T16:07:32;60547.97;;;-144.80;100.00